sensor_id;sensor_type;location;lat;lon;timestamp;temperature;humidity
983;DHT22;480;48.124;11.578;2023-09-08T00:01:32;19.40;99.90
983;DHT22;480;48.124;11.578;2023-09-08T00:03:59;19.40;99.90
983;DHT22;480;48.124;11.578;2023-09-08T00:06:26;19.30;99.90
983;DHT22;480;48.124;11.578;2023-09-08T00:08:54;19.30;99.90
983;DHT22;480;48.124;11.578;2023-09-08T00:11:21;19.30;99.90
983;DHT22;480;48.124;11.578;2023-09-08T00:13:48;19.30;99.90
983;DHT22;480;48.124;11.578;2023-09-08T00:16:16;19.30;99.90
983;DHT22;480;48.124;11.578;2023-09-08T00:18:44;19.20;99.90
983;DHT22;480;48.124;11.578;2023-09-08T00:21:11;19.20;99.90
983;DHT22;480;48.124;11.578;2023-09-08T00:23:38;19.20;99.90
983;DHT22;480;48.124;11.578;2023-09-08T00:26:05;19.20;99.90
983;DHT22;480;48.124;11.578;2023-09-08T00:28:33;19.00;99.90
983;DHT22;480;48.124;11.578;2023-09-08T00:31:00;18.80;99.90
983;DHT22;480;48.124;11.578;2023-09-08T00:33:27;18.90;99.90
983;DHT22;480;48.124;11.578;2023-09-08T00:35:58;18.90;99.90
983;DHT22;480;48.124;11.578;2023-09-08T00:38:25;18.90;99.90
983;DHT22;480;48.124;11.578;2023-09-08T00:40:52;19.00;99.90
983;DHT22;480;48.124;11.578;2023-09-08T00:43:20;18.90;99.90
983;DHT22;480;48.124;11.578;2023-09-08T00:45:48;18.90;99.90
983;DHT22;480;48.124;11.578;2023-09-08T00:48:15;18.90;99.90
983;DHT22;480;48.124;11.578;2023-09-08T00:50:42;18.90;99.90
983;DHT22;480;48.124;11.578;2023-09-08T00:53:12;18.90;99.90
983;DHT22;480;48.124;11.578;2023-09-08T00:55:41;18.90;99.90
983;DHT22;480;48.124;11.578;2023-09-08T00:58:08;18.90;99.90
983;DHT22;480;48.124;11.578;2023-09-08T01:00:35;18.90;99.90
983;DHT22;480;48.124;11.578;2023-09-08T01:03:02;18.90;99.90
983;DHT22;480;48.124;11.578;2023-09-08T01:05:29;18.80;99.90
983;DHT22;480;48.124;11.578;2023-09-08T01:07:57;18.80;99.90
983;DHT22;480;48.124;11.578;2023-09-08T01:10:27;18.70;99.90
983;DHT22;480;48.124;11.578;2023-09-08T01:12:55;18.70;99.90
983;DHT22;480;48.124;11.578;2023-09-08T01:15:22;18.70;99.90
983;DHT22;480;48.124;11.578;2023-09-08T01:17:49;18.70;99.90
983;DHT22;480;48.124;11.578;2023-09-08T01:20:18;18.70;99.90
983;DHT22;480;48.124;11.578;2023-09-08T01:23:03;18.70;99.90
983;DHT22;480;48.124;11.578;2023-09-08T01:25:40;18.70;99.90
983;DHT22;480;48.124;11.578;2023-09-08T01:28:12;18.70;99.90
983;DHT22;480;48.124;11.578;2023-09-08T01:30:40;18.60;99.90
983;DHT22;480;48.124;11.578;2023-09-08T01:33:07;18.60;99.90
983;DHT22;480;48.124;11.578;2023-09-08T01:35:36;18.50;99.90
983;DHT22;480;48.124;11.578;2023-09-08T01:38:03;18.40;99.90
983;DHT22;480;48.124;11.578;2023-09-08T01:40:30;18.50;99.90
983;DHT22;480;48.124;11.578;2023-09-08T01:42:58;18.50;99.90
983;DHT22;480;48.124;11.578;2023-09-08T01:45:25;18.40;99.90
983;DHT22;480;48.124;11.578;2023-09-08T01:47:52;18.20;99.90
983;DHT22;480;48.124;11.578;2023-09-08T01:50:19;18.10;99.90
983;DHT22;480;48.124;11.578;2023-09-08T01:52:48;18.20;99.90
983;DHT22;480;48.124;11.578;2023-09-08T01:55:15;18.30;99.90
983;DHT22;480;48.124;11.578;2023-09-08T01:57:42;18.20;99.90
983;DHT22;480;48.124;11.578;2023-09-08T02:00:11;18.10;99.90
983;DHT22;480;48.124;11.578;2023-09-08T02:02:39;18.10;99.90
983;DHT22;480;48.124;11.578;2023-09-08T02:05:07;18.00;99.90
983;DHT22;480;48.124;11.578;2023-09-08T02:07:34;18.10;99.90
983;DHT22;480;48.124;11.578;2023-09-08T02:10:01;18.10;99.90
983;DHT22;480;48.124;11.578;2023-09-08T02:12:28;18.10;99.90
983;DHT22;480;48.124;11.578;2023-09-08T02:14:55;18.00;99.90
983;DHT22;480;48.124;11.578;2023-09-08T02:17:24;18.10;99.90
983;DHT22;480;48.124;11.578;2023-09-08T02:19:51;18.10;99.90
983;DHT22;480;48.124;11.578;2023-09-08T02:22:18;18.00;99.90
983;DHT22;480;48.124;11.578;2023-09-08T02:24:45;18.10;99.90
983;DHT22;480;48.124;11.578;2023-09-08T02:27:12;18.00;99.90
983;DHT22;480;48.124;11.578;2023-09-08T02:29:39;17.80;99.90
983;DHT22;480;48.124;11.578;2023-09-08T02:32:06;17.90;99.90
983;DHT22;480;48.124;11.578;2023-09-08T02:34:35;17.90;99.90
983;DHT22;480;48.124;11.578;2023-09-08T02:37:04;17.60;99.90
983;DHT22;480;48.124;11.578;2023-09-08T02:39:32;17.30;99.90
983;DHT22;480;48.124;11.578;2023-09-08T02:41:59;17.50;99.90
983;DHT22;480;48.124;11.578;2023-09-08T02:44:26;17.40;99.90
983;DHT22;480;48.124;11.578;2023-09-08T02:46:54;17.10;99.90
983;DHT22;480;48.124;11.578;2023-09-08T02:49:22;17.00;99.90
983;DHT22;480;48.124;11.578;2023-09-08T02:51:50;17.20;99.90
983;DHT22;480;48.124;11.578;2023-09-08T02:54:17;17.40;99.90
983;DHT22;480;48.124;11.578;2023-09-08T02:56:46;17.40;99.90
983;DHT22;480;48.124;11.578;2023-09-08T02:59:13;17.40;99.90
983;DHT22;480;48.124;11.578;2023-09-08T03:01:40;17.50;99.90
983;DHT22;480;48.124;11.578;2023-09-08T03:04:07;17.50;99.90
983;DHT22;480;48.124;11.578;2023-09-08T03:06:35;17.50;99.90
983;DHT22;480;48.124;11.578;2023-09-08T03:09:03;17.20;99.90
983;DHT22;480;48.124;11.578;2023-09-08T03:11:30;16.90;99.90
983;DHT22;480;48.124;11.578;2023-09-08T03:13:57;17.10;99.90
983;DHT22;480;48.124;11.578;2023-09-08T03:16:24;17.20;99.90
983;DHT22;480;48.124;11.578;2023-09-08T03:18:51;17.30;99.90
983;DHT22;480;48.124;11.578;2023-09-08T03:21:18;17.20;99.90
983;DHT22;480;48.124;11.578;2023-09-08T03:23:45;17.00;99.90
983;DHT22;480;48.124;11.578;2023-09-08T03:26:14;17.00;99.90
983;DHT22;480;48.124;11.578;2023-09-08T03:28:42;17.10;99.90
983;DHT22;480;48.124;11.578;2023-09-08T03:31:09;17.20;99.90
983;DHT22;480;48.124;11.578;2023-09-08T03:33:36;17.10;99.90
983;DHT22;480;48.124;11.578;2023-09-08T03:36:04;17.10;99.90
983;DHT22;480;48.124;11.578;2023-09-08T03:38:31;17.00;99.90
983;DHT22;480;48.124;11.578;2023-09-08T03:40:58;16.80;99.90
983;DHT22;480;48.124;11.578;2023-09-08T03:43:27;16.90;99.90
983;DHT22;480;48.124;11.578;2023-09-08T03:45:54;16.80;99.90
983;DHT22;480;48.124;11.578;2023-09-08T03:48:21;16.80;99.90
983;DHT22;480;48.124;11.578;2023-09-08T03:50:48;16.90;99.90
983;DHT22;480;48.124;11.578;2023-09-08T03:53:15;17.00;99.90
983;DHT22;480;48.124;11.578;2023-09-08T03:55:42;17.00;99.90
983;DHT22;480;48.124;11.578;2023-09-08T03:58:09;17.10;99.90
983;DHT22;480;48.124;11.578;2023-09-08T04:00:37;17.10;99.90
983;DHT22;480;48.124;11.578;2023-09-08T04:03:04;17.10;99.90
983;DHT22;480;48.124;11.578;2023-09-08T04:05:32;17.10;99.90
983;DHT22;480;48.124;11.578;2023-09-08T04:07:59;17.10;99.90
983;DHT22;480;48.124;11.578;2023-09-08T04:10:26;17.10;99.90
983;DHT22;480;48.124;11.578;2023-09-08T04:12:53;17.00;99.90
983;DHT22;480;48.124;11.578;2023-09-08T04:15:20;16.70;99.90
983;DHT22;480;48.124;11.578;2023-09-08T04:17:49;16.80;99.90
983;DHT22;480;48.124;11.578;2023-09-08T04:20:17;16.80;99.90
983;DHT22;480;48.124;11.578;2023-09-08T04:22:43;16.80;99.90
983;DHT22;480;48.124;11.578;2023-09-08T04:25:10;16.70;99.90
983;DHT22;480;48.124;11.578;2023-09-08T04:27:37;16.70;99.90
983;DHT22;480;48.124;11.578;2023-09-08T04:30:07;16.80;99.90
983;DHT22;480;48.124;11.578;2023-09-08T04:32:34;16.80;99.90
983;DHT22;480;48.124;11.578;2023-09-08T04:35:05;16.90;99.90
983;DHT22;480;48.124;11.578;2023-09-08T04:37:32;16.90;99.90
983;DHT22;480;48.124;11.578;2023-09-08T04:40:00;16.90;99.90
983;DHT22;480;48.124;11.578;2023-09-08T04:42:27;16.80;99.90
983;DHT22;480;48.124;11.578;2023-09-08T04:44:54;16.80;99.90
983;DHT22;480;48.124;11.578;2023-09-08T04:47:21;16.70;99.90
983;DHT22;480;48.124;11.578;2023-09-08T04:49:48;16.70;99.90
983;DHT22;480;48.124;11.578;2023-09-08T04:52:20;16.80;99.90
983;DHT22;480;48.124;11.578;2023-09-08T04:54:47;16.70;99.90
983;DHT22;480;48.124;11.578;2023-09-08T04:57:14;16.70;99.90
983;DHT22;480;48.124;11.578;2023-09-08T04:59:41;16.80;99.90
983;DHT22;480;48.124;11.578;2023-09-08T05:02:08;16.80;99.90
983;DHT22;480;48.124;11.578;2023-09-08T05:04:35;16.70;99.90
983;DHT22;480;48.124;11.578;2023-09-08T05:07:02;16.60;99.90
983;DHT22;480;48.124;11.578;2023-09-08T05:09:31;16.70;99.90
983;DHT22;480;48.124;11.578;2023-09-08T05:11:59;16.80;99.90
983;DHT22;480;48.124;11.578;2023-09-08T05:14:26;16.70;99.90
983;DHT22;480;48.124;11.578;2023-09-08T05:16:53;16.80;99.90
983;DHT22;480;48.124;11.578;2023-09-08T05:19:21;16.70;99.90
983;DHT22;480;48.124;11.578;2023-09-08T05:21:54;16.80;99.90
983;DHT22;480;48.124;11.578;2023-09-08T05:24:21;16.90;99.90
983;DHT22;480;48.124;11.578;2023-09-08T05:26:53;17.00;99.90
983;DHT22;480;48.124;11.578;2023-09-08T05:29:20;17.10;99.90
983;DHT22;480;48.124;11.578;2023-09-08T05:31:47;17.10;99.90
983;DHT22;480;48.124;11.578;2023-09-08T05:34:14;17.00;99.90
983;DHT22;480;48.124;11.578;2023-09-08T05:36:41;16.90;99.90
983;DHT22;480;48.124;11.578;2023-09-08T05:39:08;16.90;99.90
983;DHT22;480;48.124;11.578;2023-09-08T05:41:35;16.80;99.90
983;DHT22;480;48.124;11.578;2023-09-08T05:44:05;17.10;99.90
983;DHT22;480;48.124;11.578;2023-09-08T05:46:32;17.10;99.90
983;DHT22;480;48.124;11.578;2023-09-08T05:48:59;17.20;99.90
983;DHT22;480;48.124;11.578;2023-09-08T05:51:26;17.30;99.90
983;DHT22;480;48.124;11.578;2023-09-08T05:53:53;17.40;99.90
983;DHT22;480;48.124;11.578;2023-09-08T05:56:24;17.20;99.90
983;DHT22;480;48.124;11.578;2023-09-08T05:58:53;17.20;99.90
983;DHT22;480;48.124;11.578;2023-09-08T06:01:21;17.20;99.90
983;DHT22;480;48.124;11.578;2023-09-08T06:03:49;17.30;99.90
983;DHT22;480;48.124;11.578;2023-09-08T06:06:16;17.50;99.90
983;DHT22;480;48.124;11.578;2023-09-08T06:08:43;17.40;99.90
983;DHT22;480;48.124;11.578;2023-09-08T06:11:10;17.50;99.90
983;DHT22;480;48.124;11.578;2023-09-08T06:13:37;17.50;99.90
983;DHT22;480;48.124;11.578;2023-09-08T06:16:05;17.40;99.90
983;DHT22;480;48.124;11.578;2023-09-08T06:18:34;17.60;99.90
983;DHT22;480;48.124;11.578;2023-09-08T06:21:05;17.60;99.90
983;DHT22;480;48.124;11.578;2023-09-08T06:23:32;17.60;99.90
983;DHT22;480;48.124;11.578;2023-09-08T06:26:00;17.80;99.90
983;DHT22;480;48.124;11.578;2023-09-08T06:28:27;17.80;99.90
983;DHT22;480;48.124;11.578;2023-09-08T06:30:54;17.80;99.90
983;DHT22;480;48.124;11.578;2023-09-08T06:33:21;17.80;99.90
983;DHT22;480;48.124;11.578;2023-09-08T06:35:50;17.90;99.90
983;DHT22;480;48.124;11.578;2023-09-08T06:38:19;18.00;99.90
983;DHT22;480;48.124;11.578;2023-09-08T06:40:46;18.00;99.90
983;DHT22;480;48.124;11.578;2023-09-08T06:43:13;18.10;99.90
983;DHT22;480;48.124;11.578;2023-09-08T06:45:40;18.20;99.90
983;DHT22;480;48.124;11.578;2023-09-08T06:48:07;18.50;99.90
983;DHT22;480;48.124;11.578;2023-09-08T06:50:34;18.50;99.90
983;DHT22;480;48.124;11.578;2023-09-08T06:53:03;18.40;99.90
983;DHT22;480;48.124;11.578;2023-09-08T06:55:31;18.60;99.90
983;DHT22;480;48.124;11.578;2023-09-08T06:57:58;18.70;99.90
983;DHT22;480;48.124;11.578;2023-09-08T07:00:25;18.80;99.90
983;DHT22;480;48.124;11.578;2023-09-08T07:02:52;18.80;99.90
983;DHT22;480;48.124;11.578;2023-09-08T07:05:19;18.90;99.90
983;DHT22;480;48.124;11.578;2023-09-08T07:07:46;19.10;99.90
983;DHT22;480;48.124;11.578;2023-09-08T07:10:14;19.30;99.90
983;DHT22;480;48.124;11.578;2023-09-08T07:12:41;19.50;99.90
983;DHT22;480;48.124;11.578;2023-09-08T07:15:09;19.60;99.90
983;DHT22;480;48.124;11.578;2023-09-08T07:17:36;19.80;99.90
983;DHT22;480;48.124;11.578;2023-09-08T07:20:04;19.80;99.90
983;DHT22;480;48.124;11.578;2023-09-08T07:22:31;19.70;99.90
983;DHT22;480;48.124;11.578;2023-09-08T07:24:58;19.70;99.90
983;DHT22;480;48.124;11.578;2023-09-08T07:27:27;19.60;99.90
983;DHT22;480;48.124;11.578;2023-09-08T07:29:54;19.70;99.90
983;DHT22;480;48.124;11.578;2023-09-08T07:32:21;19.60;99.90
983;DHT22;480;48.124;11.578;2023-09-08T07:34:50;19.70;99.90
983;DHT22;480;48.124;11.578;2023-09-08T07:37:20;19.90;99.90
983;DHT22;480;48.124;11.578;2023-09-08T07:39:48;20.10;99.90
983;DHT22;480;48.124;11.578;2023-09-08T07:42:15;20.10;99.90
983;DHT22;480;48.124;11.578;2023-09-08T07:44:43;20.10;99.90
983;DHT22;480;48.124;11.578;2023-09-08T07:47:11;20.20;99.90
983;DHT22;480;48.124;11.578;2023-09-08T07:49:38;20.50;99.90
983;DHT22;480;48.124;11.578;2023-09-08T07:52:05;20.50;99.90
983;DHT22;480;48.124;11.578;2023-09-08T07:54:33;20.60;99.90
983;DHT22;480;48.124;11.578;2023-09-08T07:57:00;20.90;99.90
983;DHT22;480;48.124;11.578;2023-09-08T07:59:27;20.90;99.90
983;DHT22;480;48.124;11.578;2023-09-08T08:01:55;21.10;99.90
983;DHT22;480;48.124;11.578;2023-09-08T08:04:24;21.20;99.90
983;DHT22;480;48.124;11.578;2023-09-08T08:06:51;21.20;99.90
983;DHT22;480;48.124;11.578;2023-09-08T08:09:18;21.20;99.90
983;DHT22;480;48.124;11.578;2023-09-08T08:11:45;21.50;99.90
983;DHT22;480;48.124;11.578;2023-09-08T08:14:12;21.40;99.90
983;DHT22;480;48.124;11.578;2023-09-08T08:16:39;21.60;99.90
983;DHT22;480;48.124;11.578;2023-09-08T08:19:08;21.80;99.90
983;DHT22;480;48.124;11.578;2023-09-08T08:21:35;22.00;99.90
983;DHT22;480;48.124;11.578;2023-09-08T08:24:03;21.70;99.90
983;DHT22;480;48.124;11.578;2023-09-08T08:26:30;21.80;99.90
983;DHT22;480;48.124;11.578;2023-09-08T08:28:58;22.20;99.90
983;DHT22;480;48.124;11.578;2023-09-08T08:31:25;22.20;99.90
983;DHT22;480;48.124;11.578;2023-09-08T08:33:52;22.20;99.90
983;DHT22;480;48.124;11.578;2023-09-08T08:36:21;22.40;99.90
983;DHT22;480;48.124;11.578;2023-09-08T08:38:48;22.20;99.90
983;DHT22;480;48.124;11.578;2023-09-08T08:41:15;22.00;99.90
983;DHT22;480;48.124;11.578;2023-09-08T08:43:43;22.00;99.90
983;DHT22;480;48.124;11.578;2023-09-08T08:46:12;21.90;99.90
983;DHT22;480;48.124;11.578;2023-09-08T08:48:40;22.10;99.90
983;DHT22;480;48.124;11.578;2023-09-08T08:51:08;22.30;99.90
983;DHT22;480;48.124;11.578;2023-09-08T08:53:39;22.40;99.90
983;DHT22;480;48.124;11.578;2023-09-08T08:56:07;22.60;99.90
983;DHT22;480;48.124;11.578;2023-09-08T08:58:37;22.80;99.90
983;DHT22;480;48.124;11.578;2023-09-08T09:01:06;23.00;99.90
983;DHT22;480;48.124;11.578;2023-09-08T09:03:35;23.00;99.90
983;DHT22;480;48.124;11.578;2023-09-08T09:06:04;23.10;99.90
983;DHT22;480;48.124;11.578;2023-09-08T09:08:32;23.20;99.90
983;DHT22;480;48.124;11.578;2023-09-08T09:11:01;23.20;99.90
983;DHT22;480;48.124;11.578;2023-09-08T09:13:29;23.30;99.90
983;DHT22;480;48.124;11.578;2023-09-08T09:15:58;23.50;99.90
983;DHT22;480;48.124;11.578;2023-09-08T09:18:25;23.40;99.90
983;DHT22;480;48.124;11.578;2023-09-08T09:20:56;23.30;99.90
983;DHT22;480;48.124;11.578;2023-09-08T09:23:32;23.40;99.90
983;DHT22;480;48.124;11.578;2023-09-08T09:26:02;23.50;99.90
983;DHT22;480;48.124;11.578;2023-09-08T09:28:30;23.60;99.90
983;DHT22;480;48.124;11.578;2023-09-08T09:30:57;23.40;99.90
983;DHT22;480;48.124;11.578;2023-09-08T09:33:24;23.70;99.90
983;DHT22;480;48.124;11.578;2023-09-08T09:35:53;23.80;99.90
983;DHT22;480;48.124;11.578;2023-09-08T09:38:21;23.80;99.90
983;DHT22;480;48.124;11.578;2023-09-08T09:40:48;23.80;99.90
983;DHT22;480;48.124;11.578;2023-09-08T09:43:21;23.70;99.90
983;DHT22;480;48.124;11.578;2023-09-08T09:45:48;23.70;99.90
983;DHT22;480;48.124;11.578;2023-09-08T09:48:16;23.80;99.90
983;DHT22;480;48.124;11.578;2023-09-08T09:50:45;23.80;99.90
983;DHT22;480;48.124;11.578;2023-09-08T09:53:13;24.10;99.90
983;DHT22;480;48.124;11.578;2023-09-08T09:55:43;24.40;99.90
983;DHT22;480;48.124;11.578;2023-09-08T09:58:10;24.60;99.90
983;DHT22;480;48.124;11.578;2023-09-08T10:00:39;24.80;99.90
983;DHT22;480;48.124;11.578;2023-09-08T10:03:07;24.70;99.90
983;DHT22;480;48.124;11.578;2023-09-08T10:05:34;24.90;99.90
983;DHT22;480;48.124;11.578;2023-09-08T10:08:01;25.00;99.90
983;DHT22;480;48.124;11.578;2023-09-08T10:10:29;24.90;99.90
983;DHT22;480;48.124;11.578;2023-09-08T10:13:02;24.70;99.90
983;DHT22;480;48.124;11.578;2023-09-08T10:15:31;24.60;99.90
983;DHT22;480;48.124;11.578;2023-09-08T10:18:04;24.70;99.90
983;DHT22;480;48.124;11.578;2023-09-08T10:20:33;24.60;99.90
983;DHT22;480;48.124;11.578;2023-09-08T10:23:06;24.60;99.90
983;DHT22;480;48.124;11.578;2023-09-08T10:25:43;24.60;99.90
983;DHT22;480;48.124;11.578;2023-09-08T10:28:13;24.80;99.90
983;DHT22;480;48.124;11.578;2023-09-08T10:30:40;24.80;99.90
983;DHT22;480;48.124;11.578;2023-09-08T10:33:09;25.30;99.90
983;DHT22;480;48.124;11.578;2023-09-08T10:35:37;25.60;99.90
983;DHT22;480;48.124;11.578;2023-09-08T10:38:32;25.60;99.90
983;DHT22;480;48.124;11.578;2023-09-08T10:41:27;25.50;99.90
983;DHT22;480;48.124;11.578;2023-09-08T10:44:00;25.40;99.90
983;DHT22;480;48.124;11.578;2023-09-08T10:46:30;25.30;99.90
983;DHT22;480;48.124;11.578;2023-09-08T10:49:03;25.40;99.90
983;DHT22;480;48.124;11.578;2023-09-08T10:51:33;25.70;99.90
983;DHT22;480;48.124;11.578;2023-09-08T10:54:00;26.10;99.90
983;DHT22;480;48.124;11.578;2023-09-08T10:56:29;26.40;99.90
983;DHT22;480;48.124;11.578;2023-09-08T10:59:14;26.40;99.90
983;DHT22;480;48.124;11.578;2023-09-08T11:01:42;26.70;99.90
983;DHT22;480;48.124;11.578;2023-09-08T11:04:12;26.90;99.90
983;DHT22;480;48.124;11.578;2023-09-08T11:06:40;27.20;99.90
983;DHT22;480;48.124;11.578;2023-09-08T11:09:07;27.50;99.90
983;DHT22;480;48.124;11.578;2023-09-08T11:11:35;27.70;99.90
983;DHT22;480;48.124;11.578;2023-09-08T11:14:03;27.40;99.90
983;DHT22;480;48.124;11.578;2023-09-08T11:16:30;27.40;99.90
983;DHT22;480;48.124;11.578;2023-09-08T11:18:58;27.90;99.90
983;DHT22;480;48.124;11.578;2023-09-08T11:21:28;28.20;99.90
983;DHT22;480;48.124;11.578;2023-09-08T11:24:00;28.10;99.90
983;DHT22;480;48.124;11.578;2023-09-08T11:26:28;28.50;99.90
983;DHT22;480;48.124;11.578;2023-09-08T11:28:55;28.80;99.90
983;DHT22;480;48.124;11.578;2023-09-08T11:31:22;28.60;99.90
983;DHT22;480;48.124;11.578;2023-09-08T11:33:49;28.70;99.90
983;DHT22;480;48.124;11.578;2023-09-08T11:36:16;28.80;99.90
983;DHT22;480;48.124;11.578;2023-09-08T11:38:46;29.20;99.90
983;DHT22;480;48.124;11.578;2023-09-08T11:41:13;29.20;99.90
983;DHT22;480;48.124;11.578;2023-09-08T11:43:40;29.40;99.90
983;DHT22;480;48.124;11.578;2023-09-08T11:46:07;29.60;99.90
983;DHT22;480;48.124;11.578;2023-09-08T11:48:36;29.20;99.90
983;DHT22;480;48.124;11.578;2023-09-08T11:51:03;29.30;99.90
983;DHT22;480;48.124;11.578;2023-09-08T11:53:33;29.40;99.90
983;DHT22;480;48.124;11.578;2023-09-08T11:56:01;29.60;99.90
983;DHT22;480;48.124;11.578;2023-09-08T11:58:29;29.70;99.90
983;DHT22;480;48.124;11.578;2023-09-08T12:00:57;29.60;99.90
983;DHT22;480;48.124;11.578;2023-09-08T12:03:24;29.30;99.90
983;DHT22;480;48.124;11.578;2023-09-08T12:05:52;29.30;99.90
983;DHT22;480;48.124;11.578;2023-09-08T12:08:20;29.60;99.90
983;DHT22;480;48.124;11.578;2023-09-08T12:10:49;29.70;99.90
983;DHT22;480;48.124;11.578;2023-09-08T12:13:22;29.40;99.90
983;DHT22;480;48.124;11.578;2023-09-08T12:15:50;29.60;99.90
983;DHT22;480;48.124;11.578;2023-09-08T12:18:17;29.70;99.90
983;DHT22;480;48.124;11.578;2023-09-08T12:20:44;29.70;99.90
983;DHT22;480;48.124;11.578;2023-09-08T12:23:19;29.70;99.90
983;DHT22;480;48.124;11.578;2023-09-08T12:25:46;29.40;99.90
983;DHT22;480;48.124;11.578;2023-09-08T12:28:13;29.20;99.90
983;DHT22;480;48.124;11.578;2023-09-08T12:30:42;29.60;99.90
983;DHT22;480;48.124;11.578;2023-09-08T12:33:09;30.00;99.90
983;DHT22;480;48.124;11.578;2023-09-08T12:35:36;30.30;99.90
983;DHT22;480;48.124;11.578;2023-09-08T12:38:04;30.60;99.90
983;DHT22;480;48.124;11.578;2023-09-08T12:40:35;30.50;99.90
983;DHT22;480;48.124;11.578;2023-09-08T12:43:02;30.40;99.90
983;DHT22;480;48.124;11.578;2023-09-08T12:45:30;30.80;99.90
983;DHT22;480;48.124;11.578;2023-09-08T12:48:00;30.90;99.90
983;DHT22;480;48.124;11.578;2023-09-08T12:50:29;31.10;99.90
983;DHT22;480;48.124;11.578;2023-09-08T12:52:56;30.90;99.90
983;DHT22;480;48.124;11.578;2023-09-08T12:55:26;30.50;99.90
983;DHT22;480;48.124;11.578;2023-09-08T12:57:53;30.20;99.90
983;DHT22;480;48.124;11.578;2023-09-08T13:00:23;30.50;99.90
983;DHT22;480;48.124;11.578;2023-09-08T13:02:51;30.60;99.90
983;DHT22;480;48.124;11.578;2023-09-08T13:05:20;30.80;99.90
983;DHT22;480;48.124;11.578;2023-09-08T13:07:47;30.80;99.90
983;DHT22;480;48.124;11.578;2023-09-08T13:10:16;30.90;99.90
983;DHT22;480;48.124;11.578;2023-09-08T13:12:44;30.90;99.90
983;DHT22;480;48.124;11.578;2023-09-08T13:15:14;30.50;99.90
983;DHT22;480;48.124;11.578;2023-09-08T13:17:46;30.50;99.90
983;DHT22;480;48.124;11.578;2023-09-08T13:20:13;30.40;99.90
983;DHT22;480;48.124;11.578;2023-09-08T13:22:42;30.50;99.90
983;DHT22;480;48.124;11.578;2023-09-08T13:25:11;31.10;99.90
983;DHT22;480;48.124;11.578;2023-09-08T13:27:40;31.50;99.90
983;DHT22;480;48.124;11.578;2023-09-08T13:30:10;31.30;99.90
983;DHT22;480;48.124;11.578;2023-09-08T13:32:39;31.10;99.90
983;DHT22;480;48.124;11.578;2023-09-08T13:35:08;31.30;99.90
983;DHT22;480;48.124;11.578;2023-09-08T13:37:37;31.30;99.90
983;DHT22;480;48.124;11.578;2023-09-08T13:40:07;30.90;99.90
983;DHT22;480;48.124;11.578;2023-09-08T13:42:35;31.30;99.90
983;DHT22;480;48.124;11.578;2023-09-08T13:45:03;31.20;99.90
983;DHT22;480;48.124;11.578;2023-09-08T13:47:31;31.40;99.90
983;DHT22;480;48.124;11.578;2023-09-08T13:50:02;31.20;99.90
983;DHT22;480;48.124;11.578;2023-09-08T13:52:33;30.90;99.90
983;DHT22;480;48.124;11.578;2023-09-08T13:55:01;30.80;99.90
983;DHT22;480;48.124;11.578;2023-09-08T13:57:32;30.80;99.90
983;DHT22;480;48.124;11.578;2023-09-08T14:00:00;30.80;99.90
983;DHT22;480;48.124;11.578;2023-09-08T14:02:27;30.60;99.90
983;DHT22;480;48.124;11.578;2023-09-08T14:04:56;30.50;99.90
983;DHT22;480;48.124;11.578;2023-09-08T14:07:23;30.50;99.90
983;DHT22;480;48.124;11.578;2023-09-08T14:09:51;30.40;99.90
983;DHT22;480;48.124;11.578;2023-09-08T14:12:19;30.20;99.90
983;DHT22;480;48.124;11.578;2023-09-08T14:14:49;29.70;99.90
983;DHT22;480;48.124;11.578;2023-09-08T14:17:17;29.50;99.90
983;DHT22;480;48.124;11.578;2023-09-08T14:19:44;29.40;99.90
983;DHT22;480;48.124;11.578;2023-09-08T14:22:13;29.30;99.90
983;DHT22;480;48.124;11.578;2023-09-08T14:24:42;28.90;99.90
983;DHT22;480;48.124;11.578;2023-09-08T14:27:10;28.80;99.90
983;DHT22;480;48.124;11.578;2023-09-08T14:29:37;28.50;99.90
983;DHT22;480;48.124;11.578;2023-09-08T14:32:06;28.20;99.90
983;DHT22;480;48.124;11.578;2023-09-08T14:34:34;28.00;99.90
983;DHT22;480;48.124;11.578;2023-09-08T14:37:01;28.20;99.90
983;DHT22;480;48.124;11.578;2023-09-08T14:39:29;28.10;99.90
983;DHT22;480;48.124;11.578;2023-09-08T14:41:56;28.30;99.90
983;DHT22;480;48.124;11.578;2023-09-08T14:44:26;28.40;99.90
983;DHT22;480;48.124;11.578;2023-09-08T14:46:53;28.40;99.90
983;DHT22;480;48.124;11.578;2023-09-08T14:49:22;28.30;99.90
983;DHT22;480;48.124;11.578;2023-09-08T14:51:49;28.10;99.90
983;DHT22;480;48.124;11.578;2023-09-08T14:54:16;28.00;99.90
983;DHT22;480;48.124;11.578;2023-09-08T14:56:45;28.00;99.90
983;DHT22;480;48.124;11.578;2023-09-08T14:59:12;28.00;99.90
983;DHT22;480;48.124;11.578;2023-09-08T15:01:41;28.00;99.90
983;DHT22;480;48.124;11.578;2023-09-08T15:04:10;28.00;99.90
983;DHT22;480;48.124;11.578;2023-09-08T15:06:39;27.90;99.90
983;DHT22;480;48.124;11.578;2023-09-08T15:09:09;27.70;99.90
983;DHT22;480;48.124;11.578;2023-09-08T15:11:38;27.80;99.90
983;DHT22;480;48.124;11.578;2023-09-08T15:14:05;27.70;99.90
983;DHT22;480;48.124;11.578;2023-09-08T15:16:32;27.70;99.90
983;DHT22;480;48.124;11.578;2023-09-08T15:19:00;27.70;99.90
983;DHT22;480;48.124;11.578;2023-09-08T15:21:28;27.90;99.90
983;DHT22;480;48.124;11.578;2023-09-08T15:24:03;28.00;99.90
983;DHT22;480;48.124;11.578;2023-09-08T15:26:30;28.00;99.90
983;DHT22;480;48.124;11.578;2023-09-08T15:28:58;28.10;99.90
983;DHT22;480;48.124;11.578;2023-09-08T15:31:26;28.30;99.90
983;DHT22;480;48.124;11.578;2023-09-08T15:33:56;28.40;99.90
983;DHT22;480;48.124;11.578;2023-09-08T15:36:25;28.70;99.90
983;DHT22;480;48.124;11.578;2023-09-08T15:38:57;28.80;99.90
983;DHT22;480;48.124;11.578;2023-09-08T15:41:27;28.60;99.90
983;DHT22;480;48.124;11.578;2023-09-08T15:43:55;28.50;99.90
983;DHT22;480;48.124;11.578;2023-09-08T15:46:23;28.30;99.90
983;DHT22;480;48.124;11.578;2023-09-08T15:48:51;27.80;99.90
983;DHT22;480;48.124;11.578;2023-09-08T15:51:19;27.70;99.90
983;DHT22;480;48.124;11.578;2023-09-08T15:53:48;27.50;99.90
983;DHT22;480;48.124;11.578;2023-09-08T15:56:16;27.30;99.90
983;DHT22;480;48.124;11.578;2023-09-08T15:58:45;27.30;99.90
983;DHT22;480;48.124;11.578;2023-09-08T16:01:12;27.30;99.90
983;DHT22;480;48.124;11.578;2023-09-08T16:03:39;27.10;99.90
983;DHT22;480;48.124;11.578;2023-09-08T16:06:08;26.90;99.90
983;DHT22;480;48.124;11.578;2023-09-08T16:08:40;26.90;99.90
983;DHT22;480;48.124;11.578;2023-09-08T16:11:07;26.70;99.90
983;DHT22;480;48.124;11.578;2023-09-08T16:13:35;26.80;99.90
983;DHT22;480;48.124;11.578;2023-09-08T16:16:06;26.80;99.90
983;DHT22;480;48.124;11.578;2023-09-08T16:18:34;26.70;99.90
983;DHT22;480;48.124;11.578;2023-09-08T16:21:02;26.60;99.90
983;DHT22;480;48.124;11.578;2023-09-08T16:23:30;26.60;99.90